sensor_id;sensor_type;location;lat;lon;timestamp;P1;durP1;ratioP1;P2;durP2;ratioP2
76210;SDS011;65003;49.518;11.280;2023-07-09T00:00:47;7.10;;;5.47;;
76210;SDS011;65003;49.518;11.280;2023-07-09T00:03:13;9.40;;;6.00;;
76210;SDS011;65003;49.518;11.280;2023-07-09T00:05:40;8.10;;;6.43;;
76210;SDS011;65003;49.518;11.280;2023-07-09T00:08:10;6.87;;;6.03;;
76210;SDS011;65003;49.518;11.280;2023-07-09T00:10:33;6.53;;;5.93;;
76210;SDS011;65003;49.518;11.280;2023-07-09T00:12:59;7.87;;;6.43;;
76210;SDS011;65003;49.518;11.280;2023-07-09T00:15:26;8.23;;;6.57;;
76210;SDS011;65003;49.518;11.280;2023-07-09T00:17:53;7.60;;;5.93;;
76210;SDS011;65003;49.518;11.280;2023-07-09T00:20:19;9.20;;;6.47;;
76210;SDS011;65003;49.518;11.280;2023-07-09T00:22:46;7.80;;;5.80;;
76210;SDS011;65003;49.518;11.280;2023-07-09T00:25:13;8.40;;;6.20;;
76210;SDS011;65003;49.518;11.280;2023-07-09T00:27:40;7.27;;;5.70;;
76210;SDS011;65003;49.518;11.280;2023-07-09T00:30:08;8.87;;;6.53;;
76210;SDS011;65003;49.518;11.280;2023-07-09T00:32:33;8.23;;;6.07;;
76210;SDS011;65003;49.518;11.280;2023-07-09T00:34:59;8.53;;;6.53;;
76210;SDS011;65003;49.518;11.280;2023-07-09T00:37:26;7.90;;;5.87;;
76210;SDS011;65003;49.518;11.280;2023-07-09T00:39:52;8.27;;;6.70;;
76210;SDS011;65003;49.518;11.280;2023-07-09T00:42:20;7.63;;;5.90;;
76210;SDS011;65003;49.518;11.280;2023-07-09T00:44:47;7.90;;;6.30;;
76210;SDS011;65003;49.518;11.280;2023-07-09T00:47:15;8.70;;;6.23;;
76210;SDS011;65003;49.518;11.280;2023-07-09T00:49:48;7.80;;;6.57;;
76210;SDS011;65003;49.518;11.280;2023-07-09T00:52:20;8.27;;;6.37;;
76210;SDS011;65003;49.518;11.280;2023-07-09T00:54:43;7.33;;;6.00;;
76210;SDS011;65003;49.518;11.280;2023-07-09T00:57:11;8.83;;;7.13;;
76210;SDS011;65003;49.518;11.280;2023-07-09T00:59:38;8.37;;;6.53;;
76210;SDS011;65003;49.518;11.280;2023-07-09T01:02:05;8.63;;;6.27;;
76210;SDS011;65003;49.518;11.280;2023-07-09T01:04:31;8.87;;;6.30;;
76210;SDS011;65003;49.518;11.280;2023-07-09T01:06:58;9.53;;;6.80;;
76210;SDS011;65003;49.518;11.280;2023-07-09T01:09:25;8.53;;;6.60;;
76210;SDS011;65003;49.518;11.280;2023-07-09T01:11:51;7.67;;;6.43;;
76210;SDS011;65003;49.518;11.280;2023-07-09T01:14:18;7.53;;;6.70;;
76210;SDS011;65003;49.518;11.280;2023-07-09T01:16:47;7.93;;;6.47;;
76210;SDS011;65003;49.518;11.280;2023-07-09T01:19:13;7.77;;;6.77;;
76210;SDS011;65003;49.518;11.280;2023-07-09T01:21:39;10.03;;;6.83;;
76210;SDS011;65003;49.518;11.280;2023-07-09T01:24:11;8.83;;;6.30;;
76210;SDS011;65003;49.518;11.280;2023-07-09T01:26:35;8.30;;;7.10;;
76210;SDS011;65003;49.518;11.280;2023-07-09T01:29:02;7.43;;;6.63;;
76210;SDS011;65003;49.518;11.280;2023-07-09T01:31:29;8.23;;;6.67;;
76210;SDS011;65003;49.518;11.280;2023-07-09T01:33:55;8.30;;;6.43;;
76210;SDS011;65003;49.518;11.280;2023-07-09T01:36:22;8.80;;;6.17;;
76210;SDS011;65003;49.518;11.280;2023-07-09T01:38:49;6.83;;;6.03;;
76210;SDS011;65003;49.518;11.280;2023-07-09T01:41:15;9.00;;;6.73;;
76210;SDS011;65003;49.518;11.280;2023-07-09T01:43:42;6.97;;;6.10;;
76210;SDS011;65003;49.518;11.280;2023-07-09T01:46:09;7.70;;;6.70;;
76210;SDS011;65003;49.518;11.280;2023-07-09T01:48:35;8.17;;;6.50;;
76210;SDS011;65003;49.518;11.280;2023-07-09T01:51:02;8.67;;;6.43;;
76210;SDS011;65003;49.518;11.280;2023-07-09T01:53:29;8.80;;;6.43;;
76210;SDS011;65003;49.518;11.280;2023-07-09T01:55:55;7.70;;;6.57;;
76210;SDS011;65003;49.518;11.280;2023-07-09T01:58:22;6.43;;;5.70;;
76210;SDS011;65003;49.518;11.280;2023-07-09T02:00:49;8.73;;;6.60;;
76210;SDS011;65003;49.518;11.280;2023-07-09T02:03:16;9.37;;;6.27;;
76210;SDS011;65003;49.518;11.280;2023-07-09T02:05:43;9.07;;;6.70;;
76210;SDS011;65003;49.518;11.280;2023-07-09T02:08:09;7.80;;;6.43;;
76210;SDS011;65003;49.518;11.280;2023-07-09T02:10:36;6.53;;;5.93;;
76210;SDS011;65003;49.518;11.280;2023-07-09T02:13:02;7.20;;;6.33;;
76210;SDS011;65003;49.518;11.280;2023-07-09T02:15:29;7.50;;;6.70;;
76210;SDS011;65003;49.518;11.280;2023-07-09T02:17:56;8.10;;;6.70;;
76210;SDS011;65003;49.518;11.280;2023-07-09T02:20:22;8.53;;;5.63;;
76210;SDS011;65003;49.518;11.280;2023-07-09T02:22:49;7.43;;;5.83;;
76210;SDS011;65003;49.518;11.280;2023-07-09T02:25:16;10.63;;;7.23;;
76210;SDS011;65003;49.518;11.280;2023-07-09T02:27:42;8.57;;;6.33;;
76210;SDS011;65003;49.518;11.280;2023-07-09T02:30:09;8.77;;;6.10;;
76210;SDS011;65003;49.518;11.280;2023-07-09T02:32:35;8.30;;;6.00;;
76210;SDS011;65003;49.518;11.280;2023-07-09T02:35:02;6.80;;;6.10;;
76210;SDS011;65003;49.518;11.280;2023-07-09T02:37:29;7.77;;;6.30;;
76210;SDS011;65003;49.518;11.280;2023-07-09T02:39:55;7.53;;;6.83;;
76210;SDS011;65003;49.518;11.280;2023-07-09T02:42:22;8.47;;;6.23;;
76210;SDS011;65003;49.518;11.280;2023-07-09T02:44:49;7.40;;;6.20;;
76210;SDS011;65003;49.518;11.280;2023-07-09T02:47:15;7.87;;;7.07;;
76210;SDS011;65003;49.518;11.280;2023-07-09T02:49:42;6.70;;;5.90;;
76210;SDS011;65003;49.518;11.280;2023-07-09T02:52:09;8.00;;;7.00;;
76210;SDS011;65003;49.518;11.280;2023-07-09T02:54:35;8.83;;;6.20;;
76210;SDS011;65003;49.518;11.280;2023-07-09T02:57:02;8.30;;;6.67;;
76210;SDS011;65003;49.518;11.280;2023-07-09T02:59:29;8.87;;;6.97;;
76210;SDS011;65003;49.518;11.280;2023-07-09T03:01:56;9.10;;;6.33;;
76210;SDS011;65003;49.518;11.280;2023-07-09T03:04:22;8.37;;;6.67;;
76210;SDS011;65003;49.518;11.280;2023-07-09T03:06:52;9.03;;;6.37;;
76210;SDS011;65003;49.518;11.280;2023-07-09T03:09:19;10.00;;;6.97;;
76210;SDS011;65003;49.518;11.280;2023-07-09T03:11:45;8.77;;;6.70;;
76210;SDS011;65003;49.518;11.280;2023-07-09T03:14:13;16.50;;;7.10;;
76210;SDS011;65003;49.518;11.280;2023-07-09T03:16:39;7.67;;;6.40;;
76210;SDS011;65003;49.518;11.280;2023-07-09T03:19:06;8.90;;;6.57;;
76210;SDS011;65003;49.518;11.280;2023-07-09T03:21:32;7.37;;;6.43;;
76210;SDS011;65003;49.518;11.280;2023-07-09T03:23:59;10.57;;;6.50;;
76210;SDS011;65003;49.518;11.280;2023-07-09T03:26:26;8.47;;;6.97;;
76210;SDS011;65003;49.518;11.280;2023-07-09T03:28:53;7.10;;;6.40;;
76210;SDS011;65003;49.518;11.280;2023-07-09T03:31:19;9.87;;;6.80;;
76210;SDS011;65003;49.518;11.280;2023-07-09T03:33:46;7.80;;;6.37;;
76210;SDS011;65003;49.518;11.280;2023-07-09T03:36:12;10.83;;;8.17;;
76210;SDS011;65003;49.518;11.280;2023-07-09T03:38:39;8.17;;;6.53;;
76210;SDS011;65003;49.518;11.280;2023-07-09T03:41:06;7.57;;;6.13;;
76210;SDS011;65003;49.518;11.280;2023-07-09T03:43:33;8.40;;;6.37;;
76210;SDS011;65003;49.518;11.280;2023-07-09T03:46:00;9.57;;;6.53;;
76210;SDS011;65003;49.518;11.280;2023-07-09T03:48:27;8.23;;;6.13;;
76210;SDS011;65003;49.518;11.280;2023-07-09T03:50:53;8.57;;;6.30;;
76210;SDS011;65003;49.518;11.280;2023-07-09T03:53:20;7.53;;;6.30;;
76210;SDS011;65003;49.518;11.280;2023-07-09T03:55:50;7.93;;;6.13;;
76210;SDS011;65003;49.518;11.280;2023-07-09T03:58:13;10.80;;;6.60;;
76210;SDS011;65003;49.518;11.280;2023-07-09T04:00:40;7.97;;;6.73;;
76210;SDS011;65003;49.518;11.280;2023-07-09T04:03:06;9.97;;;7.43;;
76210;SDS011;65003;49.518;11.280;2023-07-09T04:05:33;8.30;;;6.73;;
76210;SDS011;65003;49.518;11.280;2023-07-09T04:08:00;9.80;;;6.40;;
76210;SDS011;65003;49.518;11.280;2023-07-09T04:10:26;7.20;;;6.50;;
76210;SDS011;65003;49.518;11.280;2023-07-09T04:12:53;10.80;;;6.63;;
76210;SDS011;65003;49.518;11.280;2023-07-09T04:15:19;7.43;;;6.73;;
76210;SDS011;65003;49.518;11.280;2023-07-09T04:17:46;8.97;;;6.27;;
76210;SDS011;65003;49.518;11.280;2023-07-09T04:20:13;8.37;;;6.90;;
76210;SDS011;65003;49.518;11.280;2023-07-09T04:22:39;8.27;;;6.27;;
76210;SDS011;65003;49.518;11.280;2023-07-09T04:25:06;9.30;;;6.60;;
76210;SDS011;65003;49.518;11.280;2023-07-09T04:27:33;8.00;;;6.60;;
76210;SDS011;65003;49.518;11.280;2023-07-09T04:29:59;7.10;;;5.97;;
76210;SDS011;65003;49.518;11.280;2023-07-09T04:32:26;8.13;;;6.50;;
76210;SDS011;65003;49.518;11.280;2023-07-09T04:34:53;8.70;;;6.67;;
76210;SDS011;65003;49.518;11.280;2023-07-09T04:37:20;7.43;;;6.17;;
76210;SDS011;65003;49.518;11.280;2023-07-09T04:39:46;8.47;;;6.30;;
76210;SDS011;65003;49.518;11.280;2023-07-09T04:42:14;6.70;;;6.00;;
76210;SDS011;65003;49.518;11.280;2023-07-09T04:44:40;8.60;;;6.60;;
76210;SDS011;65003;49.518;11.280;2023-07-09T04:47:07;6.93;;;6.23;;
76210;SDS011;65003;49.518;11.280;2023-07-09T04:49:33;7.77;;;6.77;;
76210;SDS011;65003;49.518;11.280;2023-07-09T04:52:00;8.90;;;6.30;;
76210;SDS011;65003;49.518;11.280;2023-07-09T04:54:26;8.30;;;6.50;;
76210;SDS011;65003;49.518;11.280;2023-07-09T04:56:53;8.23;;;6.83;;
76210;SDS011;65003;49.518;11.280;2023-07-09T04:59:20;7.37;;;5.80;;
76210;SDS011;65003;49.518;11.280;2023-07-09T05:01:46;8.53;;;5.93;;
76210;SDS011;65003;49.518;11.280;2023-07-09T05:04:13;7.70;;;5.93;;
76210;SDS011;65003;49.518;11.280;2023-07-09T05:06:39;7.17;;;6.00;;
76210;SDS011;65003;49.518;11.280;2023-07-09T05:09:06;6.57;;;5.83;;
76210;SDS011;65003;49.518;11.280;2023-07-09T05:11:33;9.67;;;6.27;;
76210;SDS011;65003;49.518;11.280;2023-07-09T05:14:00;8.47;;;6.50;;
76210;SDS011;65003;49.518;11.280;2023-07-09T05:16:28;8.60;;;6.57;;
76210;SDS011;65003;49.518;11.280;2023-07-09T05:18:54;11.07;;;6.37;;
76210;SDS011;65003;49.518;11.280;2023-07-09T05:21:21;7.23;;;6.17;;
76210;SDS011;65003;49.518;11.280;2023-07-09T05:23:47;7.97;;;6.20;;
76210;SDS011;65003;49.518;11.280;2023-07-09T05:26:15;7.83;;;6.10;;
76210;SDS011;65003;49.518;11.280;2023-07-09T05:28:41;6.80;;;5.40;;
76210;SDS011;65003;49.518;11.280;2023-07-09T05:31:08;8.07;;;5.77;;
76210;SDS011;65003;49.518;11.280;2023-07-09T05:33:35;6.83;;;6.20;;
76210;SDS011;65003;49.518;11.280;2023-07-09T05:36:03;7.77;;;6.30;;
76210;SDS011;65003;49.518;11.280;2023-07-09T05:38:30;7.10;;;6.00;;
76210;SDS011;65003;49.518;11.280;2023-07-09T05:41:01;10.67;;;5.43;;
76210;SDS011;65003;49.518;11.280;2023-07-09T05:43:27;7.63;;;6.10;;
76210;SDS011;65003;49.518;11.280;2023-07-09T05:45:53;10.03;;;6.43;;
76210;SDS011;65003;49.518;11.280;2023-07-09T05:48:20;8.50;;;6.17;;
76210;SDS011;65003;49.518;11.280;2023-07-09T05:50:48;7.80;;;5.73;;
76210;SDS011;65003;49.518;11.280;2023-07-09T05:53:14;9.77;;;6.03;;
76210;SDS011;65003;49.518;11.280;2023-07-09T05:55:40;8.53;;;6.30;;
76210;SDS011;65003;49.518;11.280;2023-07-09T05:58:07;8.23;;;6.00;;
76210;SDS011;65003;49.518;11.280;2023-07-09T06:00:33;8.40;;;5.90;;
76210;SDS011;65003;49.518;11.280;2023-07-09T06:03:00;6.50;;;5.80;;
76210;SDS011;65003;49.518;11.280;2023-07-09T06:05:27;7.00;;;5.30;;
76210;SDS011;65003;49.518;11.280;2023-07-09T06:07:53;8.47;;;6.20;;
76210;SDS011;65003;49.518;11.280;2023-07-09T06:10:20;9.07;;;5.53;;
76210;SDS011;65003;49.518;11.280;2023-07-09T06:12:46;7.27;;;5.00;;
76210;SDS011;65003;49.518;11.280;2023-07-09T06:15:13;7.47;;;5.73;;
76210;SDS011;65003;49.518;11.280;2023-07-09T06:17:40;6.40;;;5.70;;
76210;SDS011;65003;49.518;11.280;2023-07-09T06:20:07;8.73;;;5.63;;
76210;SDS011;65003;49.518;11.280;2023-07-09T06:22:34;8.43;;;6.20;;
76210;SDS011;65003;49.518;11.280;2023-07-09T06:25:01;6.53;;;5.23;;
76210;SDS011;65003;49.518;11.280;2023-07-09T06:27:27;8.40;;;6.00;;
76210;SDS011;65003;49.518;11.280;2023-07-09T06:29:54;6.93;;;5.60;;
76210;SDS011;65003;49.518;11.280;2023-07-09T06:32:20;6.50;;;5.87;;
76210;SDS011;65003;49.518;11.280;2023-07-09T06:34:47;7.60;;;5.60;;
76210;SDS011;65003;49.518;11.280;2023-07-09T06:37:14;6.33;;;5.43;;
76210;SDS011;65003;49.518;11.280;2023-07-09T06:39:40;6.53;;;5.43;;
76210;SDS011;65003;49.518;11.280;2023-07-09T06:42:07;10.63;;;5.93;;
76210;SDS011;65003;49.518;11.280;2023-07-09T06:44:34;6.50;;;5.27;;
76210;SDS011;65003;49.518;11.280;2023-07-09T06:47:00;6.30;;;5.07;;
76210;SDS011;65003;49.518;11.280;2023-07-09T06:49:27;5.67;;;5.03;;
76210;SDS011;65003;49.518;11.280;2023-07-09T06:51:54;7.20;;;6.33;;
76210;SDS011;65003;49.518;11.280;2023-07-09T06:54:21;6.40;;;5.43;;
76210;SDS011;65003;49.518;11.280;2023-07-09T06:56:47;6.73;;;5.70;;
76210;SDS011;65003;49.518;11.280;2023-07-09T06:59:14;8.60;;;5.30;;
76210;SDS011;65003;49.518;11.280;2023-07-09T07:01:40;6.93;;;5.00;;
76210;SDS011;65003;49.518;11.280;2023-07-09T07:04:07;5.70;;;5.10;;
76210;SDS011;65003;49.518;11.280;2023-07-09T07:06:34;6.80;;;4.80;;
76210;SDS011;65003;49.518;11.280;2023-07-09T07:09:00;4.83;;;4.20;;
76210;SDS011;65003;49.518;11.280;2023-07-09T07:11:27;8.63;;;5.13;;
76210;SDS011;65003;49.518;11.280;2023-07-09T07:13:53;5.93;;;5.33;;
76210;SDS011;65003;49.518;11.280;2023-07-09T07:16:20;6.10;;;5.10;;
76210;SDS011;65003;49.518;11.280;2023-07-09T07:18:47;6.60;;;5.58;;
76210;SDS011;65003;49.518;11.280;2023-07-09T07:21:13;6.15;;;5.55;;
76210;SDS011;65003;49.518;11.280;2023-07-09T07:23:40;8.55;;;6.08;;
76210;SDS011;65003;49.518;11.280;2023-07-09T07:26:06;7.12;;;6.37;;
76210;SDS011;65003;49.518;11.280;2023-07-09T07:28:34;6.33;;;5.40;;
76210;SDS011;65003;49.518;11.280;2023-07-09T07:31:01;8.25;;;6.47;;
76210;SDS011;65003;49.518;11.280;2023-07-09T07:33:29;6.50;;;5.90;;
76210;SDS011;65003;49.518;11.280;2023-07-09T07:35:55;6.78;;;5.85;;
76210;SDS011;65003;49.518;11.280;2023-07-09T07:38:22;5.85;;;5.35;;
76210;SDS011;65003;49.518;11.280;2023-07-09T07:40:49;6.50;;;5.55;;
76210;SDS011;65003;49.518;11.280;2023-07-09T07:43:15;6.67;;;5.80;;
76210;SDS011;65003;49.518;11.280;2023-07-09T07:45:42;6.60;;;5.67;;
76210;SDS011;65003;49.518;11.280;2023-07-09T07:48:09;7.15;;;6.15;;
76210;SDS011;65003;49.518;11.280;2023-07-09T07:50:35;6.95;;;5.95;;
76210;SDS011;65003;49.518;11.280;2023-07-09T07:53:02;7.75;;;5.85;;
76210;SDS011;65003;49.518;11.280;2023-07-09T07:55:28;5.55;;;5.05;;
76210;SDS011;65003;49.518;11.280;2023-07-09T07:57:55;5.53;;;5.03;;
76210;SDS011;65003;49.518;11.280;2023-07-09T08:00:22;6.20;;;5.00;;
76210;SDS011;65003;49.518;11.280;2023-07-09T08:02:48;6.20;;;5.60;;
76210;SDS011;65003;49.518;11.280;2023-07-09T08:05:15;6.05;;;5.45;;
76210;SDS011;65003;49.518;11.280;2023-07-09T08:07:42;5.80;;;5.28;;
76210;SDS011;65003;49.518;11.280;2023-07-09T08:10:08;8.68;;;5.72;;
76210;SDS011;65003;49.518;11.280;2023-07-09T08:12:35;6.80;;;5.40;;
76210;SDS011;65003;49.518;11.280;2023-07-09T08:15:01;6.55;;;5.90;;
76210;SDS011;65003;49.518;11.280;2023-07-09T08:17:28;5.40;;;4.90;;
76210;SDS011;65003;49.518;11.280;2023-07-09T08:19:55;5.85;;;5.22;;
76210;SDS011;65003;49.518;11.280;2023-07-09T08:22:21;5.90;;;5.40;;
76210;SDS011;65003;49.518;11.280;2023-07-09T08:24:49;6.73;;;5.00;;
76210;SDS011;65003;49.518;11.280;2023-07-09T08:27:15;6.47;;;5.37;;
76210;SDS011;65003;49.518;11.280;2023-07-09T08:29:42;7.37;;;5.33;;
76210;SDS011;65003;49.518;11.280;2023-07-09T08:32:09;6.37;;;5.15;;
76210;SDS011;65003;49.518;11.280;2023-07-09T08:34:35;5.20;;;4.62;;
76210;SDS011;65003;49.518;11.280;2023-07-09T08:37:02;5.95;;;5.45;;
76210;SDS011;65003;49.518;11.280;2023-07-09T08:39:28;6.12;;;4.65;;
76210;SDS011;65003;49.518;11.280;2023-07-09T08:42:02;5.90;;;5.28;;
76210;SDS011;65003;49.518;11.280;2023-07-09T08:44:43;8.13;;;5.17;;
76210;SDS011;65003;49.518;11.280;2023-07-09T08:47:06;5.67;;;4.60;;
76210;SDS011;65003;49.518;11.280;2023-07-09T08:50:09;8.93;;;5.25;;
76210;SDS011;65003;49.518;11.280;2023-07-09T08:52:26;5.25;;;4.67;;
76210;SDS011;65003;49.518;11.280;2023-07-09T08:54:57;5.50;;;4.17;;
76210;SDS011;65003;49.518;11.280;2023-07-09T08:57:25;6.30;;;4.35;;
76210;SDS011;65003;49.518;11.280;2023-07-09T08:59:51;5.97;;;5.00;;
76210;SDS011;65003;49.518;11.280;2023-07-09T09:02:25;6.72;;;5.25;;
76210;SDS011;65003;49.518;11.280;2023-07-09T09:04:45;5.83;;;4.42;;
76210;SDS011;65003;49.518;11.280;2023-07-09T09:07:23;6.47;;;5.08;;
76210;SDS011;65003;49.518;11.280;2023-07-09T09:09:55;5.10;;;4.62;;
76210;SDS011;65003;49.518;11.280;2023-07-09T09:12:20;6.12;;;4.35;;
76210;SDS011;65003;49.518;11.280;2023-07-09T09:14:46;5.33;;;4.15;;
76210;SDS011;65003;49.518;11.280;2023-07-09T09:17:14;5.83;;;4.75;;
76210;SDS011;65003;49.518;11.280;2023-07-09T09:19:45;4.95;;;4.30;;
76210;SDS011;65003;49.518;11.280;2023-07-09T09:22:12;5.08;;;4.17;;
76210;SDS011;65003;49.518;11.280;2023-07-09T09:24:43;5.03;;;4.45;;
76210;SDS011;65003;49.518;11.280;2023-07-09T09:27:07;6.20;;;4.47;;
76210;SDS011;65003;49.518;11.280;2023-07-09T09:29:33;4.90;;;4.17;;
76210;SDS011;65003;49.518;11.280;2023-07-09T09:32:02;7.17;;;4.05;;
76210;SDS011;65003;49.518;11.280;2023-07-09T09:34:28;6.90;;;4.85;;
76210;SDS011;65003;49.518;11.280;2023-07-09T09:36:53;6.90;;;4.33;;
76210;SDS011;65003;49.518;11.280;2023-07-09T09:39:20;4.47;;;4.08;;
76210;SDS011;65003;49.518;11.280;2023-07-09T09:41:46;5.17;;;4.40;;
76210;SDS011;65003;49.518;11.280;2023-07-09T09:44:17;5.12;;;4.62;;
76210;SDS011;65003;49.518;11.280;2023-07-09T09:46:43;5.08;;;4.47;;
76210;SDS011;65003;49.518;11.280;2023-07-09T09:49:10;5.35;;;4.53;;
76210;SDS011;65003;49.518;11.280;2023-07-09T09:51:39;6.26;;;4.54;;
76210;SDS011;65003;49.518;11.280;2023-07-09T09:54:03;5.60;;;4.75;;
76210;SDS011;65003;49.518;11.280;2023-07-09T09:56:33;8.08;;;4.87;;
76210;SDS011;65003;49.518;11.280;2023-07-09T09:58:57;10.55;;;4.67;;
76210;SDS011;65003;49.518;11.280;2023-07-09T10:01:26;4.42;;;4.00;;
76210;SDS011;65003;49.518;11.280;2023-07-09T10:03:56;5.37;;;4.30;;
76210;SDS011;65003;49.518;11.280;2023-07-09T10:06:33;5.05;;;4.55;;
76210;SDS011;65003;49.518;11.280;2023-07-09T10:08:52;5.78;;;4.50;;
76210;SDS011;65003;49.518;11.280;2023-07-09T10:11:19;4.90;;;4.20;;
76210;SDS011;65003;49.518;11.280;2023-07-09T10:13:44;5.55;;;5.05;;
76210;SDS011;65003;49.518;11.280;2023-07-09T10:19:04;7.17;;;4.92;;
76210;SDS011;65003;49.518;11.280;2023-07-09T10:21:45;8.93;;;4.80;;
76210;SDS011;65003;49.518;11.280;2023-07-09T10:24:17;6.08;;;4.08;;
76210;SDS011;65003;49.518;11.280;2023-07-09T10:26:57;8.55;;;5.12;;
76210;SDS011;65003;49.518;11.280;2023-07-09T10:29:31;9.18;;;4.70;;
76210;SDS011;65003;49.518;11.280;2023-07-09T10:31:58;4.80;;;4.40;;
76210;SDS011;65003;49.518;11.280;2023-07-09T10:34:29;4.92;;;4.42;;
76210;SDS011;65003;49.518;11.280;2023-07-09T10:38:07;4.90;;;4.37;;
76210;SDS011;65003;49.518;11.280;2023-07-09T10:39:45;5.93;;;4.60;;
76210;SDS011;65003;49.518;11.280;2023-07-09T10:42:22;8.80;;;4.30;;
76210;SDS011;65003;49.518;11.280;2023-07-09T10:44:39;6.55;;;4.60;;
76210;SDS011;65003;49.518;11.280;2023-07-09T10:47:06;5.15;;;4.00;;
76210;SDS011;65003;49.518;11.280;2023-07-09T10:49:34;5.83;;;4.45;;
76210;SDS011;65003;49.518;11.280;2023-07-09T10:52:05;5.97;;;4.53;;
76210;SDS011;65003;49.518;11.280;2023-07-09T10:54:33;4.87;;;4.10;;
76210;SDS011;65003;49.518;11.280;2023-07-09T10:57:08;6.08;;;4.20;;
76210;SDS011;65003;49.518;11.280;2023-07-09T10:59:41;7.00;;;4.10;;
76210;SDS011;65003;49.518;11.280;2023-07-09T11:02:15;5.42;;;4.08;;
76210;SDS011;65003;49.518;11.280;2023-07-09T11:04:43;7.85;;;4.58;;
76210;SDS011;65003;49.518;11.280;2023-07-09T11:07:12;5.28;;;4.30;;
76210;SDS011;65003;49.518;11.280;2023-07-09T11:09:38;5.40;;;4.38;;
76210;SDS011;65003;49.518;11.280;2023-07-09T11:12:05;6.80;;;4.45;;
76210;SDS011;65003;49.518;11.280;2023-07-09T11:14:45;5.45;;;3.92;;
76210;SDS011;65003;49.518;11.280;2023-07-09T11:17:15;4.65;;;4.22;;
76210;SDS011;65003;49.518;11.280;2023-07-09T11:19:42;4.93;;;4.20;;
76210;SDS011;65003;49.518;11.280;2023-07-09T11:22:19;5.75;;;4.50;;
76210;SDS011;65003;49.518;11.280;2023-07-09T11:24:48;6.65;;;5.15;;
76210;SDS011;65003;49.518;11.280;2023-07-09T11:27:16;4.85;;;4.08;;
76210;SDS011;65003;49.518;11.280;2023-07-09T11:29:46;7.30;;;4.50;;
76210;SDS011;65003;49.518;11.280;2023-07-09T11:32:17;5.80;;;3.75;;
76210;SDS011;65003;49.518;11.280;2023-07-09T11:34:44;5.07;;;4.10;;
76210;SDS011;65003;49.518;11.280;2023-07-09T11:37:08;5.67;;;4.30;;
76210;SDS011;65003;49.518;11.280;2023-07-09T11:42:29;6.63;;;4.40;;
76210;SDS011;65003;49.518;11.280;2023-07-09T11:47:33;6.77;;;4.20;;
76210;SDS011;65003;49.518;11.280;2023-07-09T11:50:00;6.10;;;4.67;;
76210;SDS011;65003;49.518;11.280;2023-07-09T11:52:33;4.57;;;4.03;;
76210;SDS011;65003;49.518;11.280;2023-07-09T11:57:42;6.13;;;4.00;;
76210;SDS011;65003;49.518;11.280;2023-07-09T12:00:08;6.13;;;3.93;;
76210;SDS011;65003;49.518;11.280;2023-07-09T12:02:36;7.17;;;4.10;;
76210;SDS011;65003;49.518;11.280;2023-07-09T12:05:03;4.77;;;3.70;;
76210;SDS011;65003;49.518;11.280;2023-07-09T12:07:30;5.50;;;3.80;;
76210;SDS011;65003;49.518;11.280;2023-07-09T12:09:57;4.47;;;3.47;;
76210;SDS011;65003;49.518;11.280;2023-07-09T12:12:24;5.57;;;3.97;;
76210;SDS011;65003;49.518;11.280;2023-07-09T12:14:50;8.60;;;3.90;;
76210;SDS011;65003;49.518;11.280;2023-07-09T12:17:17;5.83;;;3.70;;
76210;SDS011;65003;49.518;11.280;2023-07-09T12:19:43;4.00;;;3.60;;
76210;SDS011;65003;49.518;11.280;2023-07-09T12:22:14;5.13;;;3.80;;
76210;SDS011;65003;49.518;11.280;2023-07-09T12:24:38;4.83;;;3.67;;
76210;SDS011;65003;49.518;11.280;2023-07-09T12:27:04;6.97;;;4.27;;
76210;SDS011;65003;49.518;11.280;2023-07-09T12:29:31;6.30;;;3.63;;
76210;SDS011;65003;49.518;11.280;2023-07-09T12:31:57;6.00;;;3.77;;
76210;SDS011;65003;49.518;11.280;2023-07-09T12:34:24;6.20;;;3.87;;
76210;SDS011;65003;49.518;11.280;2023-07-09T12:36:52;4.60;;;3.70;;
76210;SDS011;65003;49.518;11.280;2023-07-09T12:39:24;4.37;;;3.57;;
76210;SDS011;65003;49.518;11.280;2023-07-09T12:41:44;5.27;;;3.60;;
76210;SDS011;65003;49.518;11.280;2023-07-09T12:44:14;5.50;;;3.97;;
76210;SDS011;65003;49.518;11.280;2023-07-09T12:46:40;5.83;;;3.90;;
76210;SDS011;65003;49.518;11.280;2023-07-09T12:49:07;5.80;;;3.23;;
76210;SDS011;65003;49.518;11.280;2023-07-09T12:51:33;5.57;;;4.07;;
76210;SDS011;65003;49.518;11.280;2023-07-09T12:54:01;8.23;;;4.30;;
76210;SDS011;65003;49.518;11.280;2023-07-09T12:56:28;5.67;;;4.20;;
76210;SDS011;65003;49.518;11.280;2023-07-09T12:58:56;4.97;;;3.80;;
76210;SDS011;65003;49.518;11.280;2023-07-09T13:01:22;4.73;;;4.20;;
76210;SDS011;65003;49.518;11.280;2023-07-09T13:03:53;7.23;;;4.00;;
76210;SDS011;65003;49.518;11.280;2023-07-09T13:06:30;7.37;;;4.10;;
76210;SDS011;65003;49.518;11.280;2023-07-09T13:09:00;4.80;;;3.53;;
76210;SDS011;65003;49.518;11.280;2023-07-09T13:11:35;6.57;;;4.43;;
76210;SDS011;65003;49.518;11.280;2023-07-09T13:14:13;6.67;;;4.30;;
76210;SDS011;65003;49.518;11.280;2023-07-09T13:16:28;5.20;;;3.80;;
76210;SDS011;65003;49.518;11.280;2023-07-09T13:18:55;7.23;;;4.07;;
76210;SDS011;65003;49.518;11.280;2023-07-09T13:21:22;7.77;;;4.23;;
76210;SDS011;65003;49.518;11.280;2023-07-09T13:23:48;5.90;;;4.30;;
76210;SDS011;65003;49.518;11.280;2023-07-09T13:26:15;5.37;;;3.77;;
76210;SDS011;65003;49.518;11.280;2023-07-09T13:28:42;5.00;;;3.73;;
76210;SDS011;65003;49.518;11.280;2023-07-09T13:31:10;7.70;;;4.47;;
76210;SDS011;65003;49.518;11.280;2023-07-09T13:33:36;4.57;;;4.10;;
76210;SDS011;65003;49.518;11.280;2023-07-09T13:36:03;7.50;;;3.47;;
76210;SDS011;65003;49.518;11.280;2023-07-09T13:38:29;4.93;;;3.60;;
76210;SDS011;65003;49.518;11.280;2023-07-09T13:40:57;5.23;;;3.90;;
76210;SDS011;65003;49.518;11.280;2023-07-09T13:43:38;6.77;;;3.80;;
76210;SDS011;65003;49.518;11.280;2023-07-09T13:46:05;4.63;;;3.50;;
76210;SDS011;65003;49.518;11.280;2023-07-09T13:48:31;4.67;;;3.60;;
76210;SDS011;65003;49.518;11.280;2023-07-09T13:50:57;7.33;;;3.90;;
76210;SDS011;65003;49.518;11.280;2023-07-09T13:53:25;5.33;;;4.43;;
76210;SDS011;65003;49.518;11.280;2023-07-09T13:55:51;7.57;;;4.27;;
76210;SDS011;65003;49.518;11.280;2023-07-09T13:58:18;4.40;;;3.60;;
76210;SDS011;65003;49.518;11.280;2023-07-09T14:00:45;5.83;;;4.50;;
76210;SDS011;65003;49.518;11.280;2023-07-09T14:03:13;5.43;;;3.77;;
76210;SDS011;65003;49.518;11.280;2023-07-09T14:05:44;4.80;;;4.30;;
76210;SDS011;65003;49.518;11.280;2023-07-09T14:08:11;7.77;;;3.57;;
76210;SDS011;65003;49.518;11.280;2023-07-09T14:10:37;6.70;;;4.07;;
76210;SDS011;65003;49.518;11.280;2023-07-09T14:13:04;6.30;;;3.80;;
76210;SDS011;65003;49.518;11.280;2023-07-09T14:15:31;4.33;;;3.70;;
76210;SDS011;65003;49.518;11.280;2023-07-09T14:17:57;5.57;;;3.33;;
76210;SDS011;65003;49.518;11.280;2023-07-09T14:20:24;5.23;;;3.47;;
76210;SDS011;65003;49.518;11.280;2023-07-09T14:22:51;5.37;;;3.90;;
76210;SDS011;65003;49.518;11.280;2023-07-09T14:25:18;8.10;;;4.30;;
76210;SDS011;65003;49.518;11.280;2023-07-09T14:27:47;8.30;;;3.93;;
76210;SDS011;65003;49.518;11.280;2023-07-09T14:30:14;5.97;;;3.97;;
76210;SDS011;65003;49.518;11.280;2023-07-09T14:32:40;4.77;;;3.97;;
76210;SDS011;65003;49.518;11.280;2023-07-09T14:35:10;5.40;;;3.60;;
76210;SDS011;65003;49.518;11.280;2023-07-09T14:37:36;7.90;;;4.03;;
76210;SDS011;65003;49.518;11.280;2023-07-09T14:40:02;5.07;;;3.80;;
76210;SDS011;65003;49.518;11.280;2023-07-09T14:42:29;5.77;;;3.87;;
76210;SDS011;65003;49.518;11.280;2023-07-09T14:44:56;6.13;;;4.03;;